Dades meteomassalio
Diari Summary for Febrer 3, 2017 Units:  Metric    English   Both
« Previous Day
Next Day »
Diari Semanal Mensual Anual Personalitzat
  Maxima: Minima: Mijana:
Temperatura: -17.8 °C -16.6 °C -13 °C
Rosada: -17.8 °C -17.2 °C -14.8 °C
Humitat: Humidity % 49 % 81 %
Velocitat del vent: 0 km/h 0 km/h 5.6 km/h
Racha vent: 0 km/h - -
Vent:- - SW
Pressio: 0 hPa 34313.7 hPa -
Pluja: 7.62 mm    
Historical Graphs
 
 
Tabular Data for Febrer 3, 2017
Time Temperature Dew Point Pressure Wind Wind Speed Wind Gust Humidity Rainfall Rate (Hourly) solar Conditions
-17.8 °C -17.8 °C 0 hPa Calm     Humidity % 0 mm SolarRadiationWatts/m^2 W/m2 Conditions
00:02 -13.6 °C -14.7 °C 34476.3 hPa WSW 9 km/h 9 km/h 87 % 0 mm 0.0 W/m2 RA
00:07 -13.6 °C -14.7 °C 34476.3 hPa WSW 6 km/h 6 km/h 87 % 0 mm 0.0 W/m2 CLR
00:12 -13.7 °C -14.8 °C 34476.3 hPa WSW 9 km/h 9 km/h 86 % 0 mm 0.0 W/m2 CLR
00:17 -13.7 °C -14.8 °C 34476.3 hPa Calm     87 % 0 mm 0.0 W/m2 CLR
00:22 -13.8 °C -14.9 °C 34476.3 hPa Calm     87 % 0 mm 0.0 W/m2 CLR
00:27 -14 °C -15.1 °C 34476.3 hPa Calm     87 % 0 mm 0.0 W/m2 CLR
00:32 -14.1 °C -15.2 °C 34476.3 hPa Calm     88 % 0 mm 0.0 W/m2 CLR
00:37 -14.1 °C -15.1 °C 34476.3 hPa Calm     89 % 0 mm 0.0 W/m2 CLR
00:42 -14.1 °C -15.1 °C 34476.3 hPa Calm     89 % 0 mm 0.0 W/m2 CLR
00:47 -14.1 °C -15.1 °C 34476.3 hPa Calm     89 % 0 mm 0.0 W/m2 CLR
00:52 -14.2 °C -15.1 °C 34476.3 hPa Calm     89 % 0 mm 0.0 W/m2 CLR
00:57 -14.3 °C -15.2 °C 34486.4 hPa Calm     89 % 0 mm 0.0 W/m2 CLR
01:02 -14.4 °C -15.3 °C 34486.4 hPa Calm     89 % 0 mm 0.0 W/m2 CLR
01:07 -14.5 °C -15.3 °C 34486.4 hPa Calm     90 % 0 mm 0.0 W/m2 CLR
01:12 -14.5 °C -15.3 °C 34486.4 hPa Calm     90 % 0 mm 0.0 W/m2 CLR
01:17 -14.7 °C -15.7 °C 34486.4 hPa Calm     89 % 0 mm 0.0 W/m2 CLR
01:22 -14.8 °C -15.5 °C 34486.4 hPa Calm     91 % 0 mm 0.0 W/m2 CLR
01:27 -14.8 °C -15.6 °C 34486.4 hPa Calm     91 % 0 mm 0.0 W/m2 CLR
01:32 -14.9 °C -15.6 °C 34486.4 hPa Calm     91 % 0 mm 0.0 W/m2 CLR
01:37 -14.9 °C -15.7 °C 34486.4 hPa Calm     91 % 0 mm 0.0 W/m2 CLR
01:42 -14.9 °C -15.6 °C 34486.4 hPa Calm     92 % 0 mm 0.0 W/m2 CLR
01:47 -15 °C -15.7 °C 34486.4 hPa Calm     91 % 0 mm 0.0 W/m2 CLR
01:52 -15.1 °C -15.8 °C 34486.4 hPa Calm     91 % 0 mm 0.0 W/m2 CLR
01:57 -15.2 °C -15.9 °C 34486.4 hPa Calm     91 % 0 mm 0.0 W/m2 CLR
02:02 -15.3 °C -15.9 °C 34486.4 hPa Calm     92 % 0 mm 0.0 W/m2 CLR
02:07 -15.3 °C -16 °C 34486.4 hPa Calm     92 % 0 mm 0.0 W/m2 CLR
02:12 -15.4 °C -16.1 °C 34486.4 hPa Calm     92 % 0 mm 0.0 W/m2 CLR
02:17 -15.4 °C -15.9 °C 34486.4 hPa Calm     93 % 0 mm 0.0 W/m2 CLR
02:22 -15.4 °C -15.9 °C 34486.4 hPa Calm     93 % 0 mm 0.0 W/m2 CLR
02:27 -15.5 °C -16.2 °C 34486.4 hPa Calm     92 % 0 mm 0.0 W/m2 CLR
02:32 -15.6 °C -16.2 °C 34476.3 hPa Calm     92 % 0 mm 0.0 W/m2 CLR
02:37 -15.7 °C -16.2 °C 34486.4 hPa Calm     93 % 0 mm 0.0 W/m2 CLR
02:42 -15.7 °C -16.3 °C 34486.4 hPa Calm     93 % 0 mm 0.0 W/m2 CLR
02:47 -15.7 °C -16.3 °C 34486.4 hPa SSW 9 km/h   93 % 0 mm 0.0 W/m2 CLR
02:52 -15.7 °C -16.3 °C 34486.4 hPa Calm     93 % 0 mm 0.0 W/m2 CLR
02:57 -15.8 °C -16.3 °C 34486.4 hPa Calm     93 % 0 mm 0.0 W/m2 CLR
03:02 -15.8 °C -16.4 °C 34486.4 hPa Calm     93 % 0 mm 0.0 W/m2 CLR
03:07 -15.9 °C -16.4 °C 34496.6 hPa Calm     93 % 0 mm 0.0 W/m2 CLR
03:12 -15.9 °C -16.4 °C 34496.6 hPa Calm     93 % 0 mm 0.0 W/m2 CLR
03:17 -15.9 °C -16.5 °C 34486.4 hPa Calm     93 % 0 mm 0.0 W/m2 CLR
03:22 -15.9 °C -16.5 °C 34486.4 hPa Calm     93 % 0 mm 0.0 W/m2 CLR
03:27 -15.9 °C -16.5 °C 34486.4 hPa Calm     93 % 0 mm 0.0 W/m2 CLR
03:31 -15.9 °C -16.4 °C 34486.4 hPa Calm     93 % 0 mm 0.0 W/m2 CLR
03:36 -15.8 °C -16.4 °C 34486.4 hPa Calm     93 % 0 mm 0.0 W/m2 CLR
03:41 -15.8 °C -16.3 °C 34486.4 hPa Calm     93 % 0 mm 0.0 W/m2 CLR
03:46 -15.9 °C -16.4 °C 34476.3 hPa Calm     93 % 0 mm 0.0 W/m2 CLR
03:51 -15.9 °C -16.4 °C 34476.3 hPa Calm     93 % 0 mm 0.0 W/m2 CLR
03:56 -15.9 °C -16.4 °C 34486.4 hPa Calm     93 % 0 mm 0.0 W/m2 CLR
04:01 -15.9 °C -16.4 °C 34486.4 hPa Calm     93 % 0 mm 0.0 W/m2 CLR
04:06 -16 °C -16.6 °C 34486.4 hPa Calm     93 % 0 mm 0.0 W/m2 CLR
04:11 -16.2 °C -16.7 °C 34476.3 hPa Calm     93 % 0 mm 0.0 W/m2 CLR
04:16 -16.2 °C -16.8 °C 34476.3 hPa Calm     93 % 0 mm 0.0 W/m2 CLR
04:21 -16.2 °C -16.8 °C 34476.3 hPa Calm     93 % 0 mm 0.0 W/m2 CLR
04:26 -16.1 °C -16.6 °C 34462.7 hPa Calm     94 % 0 mm 0.0 W/m2 CLR
04:31 -16 °C -16.5 °C 34462.7 hPa Calm     94 % 0 mm 0.0 W/m2 CLR
04:36 -16 °C -16.6 °C 34476.3 hPa Calm     93 % 0 mm 0.0 W/m2 CLR
04:41 -16.1 °C -16.6 °C 34476.3 hPa Calm     93 % 0 mm 0.0 W/m2 CLR
04:46 -16.2 °C -16.8 °C 34462.7 hPa Calm     93 % 0 mm 0.0 W/m2 CLR
04:51 -16.3 °C -16.9 °C 34462.7 hPa Calm     93 % 0 mm 0.0 W/m2 CLR
04:56 -16.4 °C -16.9 °C 34462.7 hPa Calm     93 % 0 mm 0.0 W/m2 CLR
05:01 -16.4 °C -17 °C 34462.7 hPa Calm     93 % 0 mm 0.0 W/m2 CLR
05:06 -16.5 °C -17.1 °C 34462.7 hPa Calm     93 % 0 mm 0.0 W/m2 CLR
05:11 -16.4 °C -16.9 °C 34462.7 hPa Calm     94 % 0 mm 0.0 W/m2 CLR
05:16 -16.5 °C -17 °C 34462.7 hPa Calm     94 % 0 mm 0.0 W/m2 CLR
05:21 -16.6 °C -17.1 °C 34462.7 hPa Calm     93 % 0 mm 0.0 W/m2 CLR
05:26 -16.6 °C -17.1 °C 34462.7 hPa Calm     93 % 7.62 mm 0.0 W/m2 RA
05:31 -16.6 °C -17.2 °C 34476.3 hPa Calm     93 % 7.62 mm 0.0 W/m2
05:36 -16.6 °C -17.1 °C 34462.7 hPa Calm     94 % 7.62 mm 0.0 W/m2 CLR
05:41 -16.6 °C -17.1 °C 34462.7 hPa Calm     94 % 7.62 mm 0.0 W/m2 CLR
05:46 -16.5 °C -17 °C 34462.7 hPa Calm     94 % 7.62 mm 0.0 W/m2 CLR
05:51 -16.5 °C -17 °C 34462.7 hPa SW 6 km/h 6 km/h 94 % 7.62 mm 0.0 W/m2 CLR
05:56 -16.4 °C -16.9 °C 34462.7 hPa Calm     94 % 7.62 mm 0.0 W/m2 CLR
06:01 -16.4 °C -16.9 °C 34462.7 hPa Calm     94 % 7.62 mm 0.0 W/m2 CLR
06:06 -16.4 °C -16.9 °C 34452.6 hPa Calm     94 % 7.62 mm 0.0 W/m2 CLR
06:11 -16.4 °C -16.9 °C 34452.6 hPa Calm     94 % 7.62 mm 0.0 W/m2 CLR
06:16 -16.3 °C -16.8 °C 34452.6 hPa Calm     94 % 7.62 mm 0.0 W/m2 CLR
06:21 -16.4 °C -16.9 °C 34452.6 hPa Calm     94 % 7.62 mm 0.0 W/m2 CLR
06:26 -16.4 °C -16.9 °C 34442.4 hPa Calm     94 % 0 mm 0.0 W/m2 CLR
06:31 -16.4 °C -16.9 °C 34452.6 hPa Calm     94 % 0 mm 0.0 W/m2 CLR
06:36 -16.3 °C -16.8 °C 34452.6 hPa Calm     94 % 0 mm 0.0 W/m2 CLR
06:41 -16.4 °C -16.9 °C 34442.4 hPa Calm     94 % 0 mm 0.0 W/m2 CLR
06:46 -16.4 °C -16.9 °C 34442.4 hPa Calm     94 % 0 mm 0.0 W/m2 CLR
06:51 -16.4 °C -16.9 °C 34442.4 hPa Calm     94 % 0 mm 0.0 W/m2 CLR
06:56 -16.3 °C -16.8 °C 34428.8 hPa Calm     94 % 0 mm 0.0 W/m2 CLR
07:01 -16.3 °C -16.8 °C 34418.7 hPa Calm     94 % 0 mm 0.0 W/m2 CLR
07:06 -16.2 °C -16.6 °C 34405.1 hPa SE 9 km/h 9 km/h 94 % 0 mm 0.0 W/m2 CLR
07:11 -16 °C -16.5 °C 34428.8 hPa East 3.1 km/h 3.1 km/h 94 % 0 mm 0.0 W/m2 CLR
07:16 -15.9 °C -16.4 °C 34442.4 hPa Calm     94 % 0 mm 0.0 W/m2 CLR
07:21 -15.9 °C -16.3 °C 34428.8 hPa Calm     94 % 0 mm 0.0 W/m2 CLR
07:26 -15.9 °C -16.3 °C 34442.4 hPa Calm     94 % 0 mm 0.0 W/m2 CLR
07:31 -15.8 °C -16.3 °C 34452.6 hPa NNW 9 km/h 9 km/h 94 % 0 mm 0.0 W/m2 CLR
07:36 -15.8 °C -16.3 °C 34452.6 hPa WSW 5.1 km/h   94 % 0 mm 0.0 W/m2 CLR
07:41 -15.9 °C -16.4 °C 34452.6 hPa WSW 15 km/h 15 km/h 94 % 0 mm 0.0 W/m2 CLR
07:46 -15.9 °C -16.3 °C 34442.4 hPa SW 10.3 km/h 10.3 km/h 94 % 0 mm 0.0 W/m2 CLR
07:51 -15.8 °C -16.3 °C 34428.8 hPa Calm     94 % 0 mm 0.0 W/m2 CLR
07:56 -15.7 °C -16.2 °C 34418.7 hPa Calm     94 % 0 mm 0.0 W/m2 CLR
08:01 -15.7 °C -16.2 °C 34418.7 hPa Calm     94 % 0 mm 0.0 W/m2 OVC
08:06 -15.7 °C -16.2 °C 34418.7 hPa Calm     94 % 0 mm 0.0 W/m2 OVC
08:11 -15.7 °C -16.2 °C 34405.1 hPa Calm   2.1 km/h 94 % 0 mm 0.0 W/m2 OVC
08:16 -15.6 °C -16.1 °C 34405.1 hPa Calm     94 % 0 mm 0.0 W/m2 OVC
08:19 -15.5 °C -16 °C 34405.1 hPa Calm     94 % 0 mm 0.0 W/m2 OVC
08:24 -15.5 °C -16 °C 34405.1 hPa Calm     94 % 0 mm 0.0 W/m2 OVC
08:29 -15.4 °C -15.9 °C 34418.7 hPa Calm     94 % 0 mm 0.0 W/m2 OVC
08:34 -15.2 °C -15.7 °C 34418.7 hPa Calm     94 % 0 mm 9.0 W/m2 BKN
08:39 -15.2 °C -15.7 °C 34418.7 hPa Calm     94 % 0 mm 14.0 W/m2 BKN
08:44 -15.2 °C -15.7 °C 34428.8 hPa Calm     93 % 0 mm 18.0 W/m2 BKN
08:49 -15.2 °C -15.8 °C 34428.8 hPa Calm     93 % 0 mm 26.0 W/m2 BKN
08:54 -15.2 °C -15.8 °C 34428.8 hPa Calm     93 % 0 mm 23.0 W/m2 BKN
08:59 -15.2 °C -15.9 °C 34428.8 hPa Calm     92 % 0 mm 28.0 W/m2 BKN
09:04 -15.3 °C -15.9 °C 34428.8 hPa Calm     93 % 0 mm 28.0 W/m2 BKN
09:09 -15.2 °C -15.8 °C 34442.4 hPa Calm     93 % 0 mm 26.0 W/m2 BKN
09:14 -15.2 °C -15.9 °C 34428.8 hPa Calm     92 % 0 mm 30.0 W/m2 BKN
09:19 -15.2 °C -15.9 °C 34428.8 hPa Calm     92 % 0 mm 30.0 W/m2 BKN
09:24 -15.3 °C -15.9 °C 34442.4 hPa Calm     92 % 0 mm 32.0 W/m2 BKN
09:29 -15.3 °C -16 °C 34442.4 hPa Calm     92 % 0 mm 42.0 W/m2 BKN
09:34 -15.3 °C -15.9 °C 34428.8 hPa Calm     93 % 0 mm 60.0 W/m2 BKN
09:39 -15.2 °C -15.8 °C 34428.8 hPa Calm     93 % 0 mm 65.0 W/m2 SCT
09:44 -15.2 °C -15.7 °C 34428.8 hPa Calm     93 % 0 mm 120.0 W/m2 FEW
09:49 -15 °C -15.6 °C 34428.8 hPa Calm     93 % 0 mm 146.0 W/m2 CLR
09:54 -14.9 °C -15.4 °C 34418.7 hPa Calm     93 % 0 mm 163.0 W/m2 CLR
09:59 -14.6 °C -15.2 °C 34418.7 hPa Calm     93 % 0 mm 211.0 W/m2 CLR
10:04 -14.3 °C -14.9 °C 34405.1 hPa Calm     93 % 0 mm 234.0 W/m2 CLR
10:09 -14.2 °C -14.8 °C 34395 hPa Calm     93 % 0 mm 185.0 W/m2 CLR
10:14 -14.1 °C -14.8 °C 34395 hPa Calm     92 % 0 mm 265.0 W/m2 CLR
10:19 -14 °C -14.8 °C 34384.8 hPa Calm     91 % 0 mm 283.0 W/m2 CLR
10:24 -13.8 °C -14.6 °C 34395 hPa Calm     91 % 0 mm 327.0 W/m2 CLR
10:29 -13.7 °C -14.4 °C 34384.8 hPa Calm     91 % 0 mm 348.0 W/m2 CLR
10:34 -13.3 °C -14.2 °C 34395 hPa Calm     89 % 0 mm 387.0 W/m2 CLR
10:39 -12.9 °C -14 °C 34395 hPa Calm     87 % 0 mm 367.0 W/m2 CLR
10:44 -12.4 °C -13.7 °C 34384.8 hPa Calm     86 % 0 mm 360.0 W/m2 CLR
10:49 -12.2 °C -13.5 °C 34395 hPa Calm     85 % 0 mm 373.0 W/m2 CLR
10:54 -11.9 °C -13.7 °C 34384.8 hPa Calm     81 % 0 mm 387.0 W/m2 CLR
10:59 -11.7 °C -13.9 °C 34371.3 hPa South 9 km/h 9 km/h 76 % 0 mm 388.0 W/m2 CLR
11:04 -11.3 °C -14.1 °C 34371.3 hPa South 17.9 km/h 17.9 km/h 72 % 0 mm 424.0 W/m2 CLR
11:09 -10.9 °C -13.7 °C 34371.3 hPa South 11.9 km/h 11.9 km/h 72 % 0 mm 494.0 W/m2 CLR
11:14 -10.7 °C -14.1 °C 34371.3 hPa South 15 km/h 15 km/h 66 % 0 mm 563.0 W/m2 CLR
11:19 -10.4 °C -13.4 °C 34371.3 hPa SSE 11.9 km/h 11.9 km/h 70 % 0 mm 534.0 W/m2 CLR
11:24 -10.3 °C -13.5 °C 34371.3 hPa SSE 11.9 km/h 11.9 km/h 68 % 0 mm 332.0 W/m2 CLR
11:29 -10.3 °C -14.1 °C 34371.3 hPa SSE 23.8 km/h 23.8 km/h 63 % 0 mm 190.0 W/m2 CLR
11:34 -10.2 °C -14.2 °C 34361.1 hPa SSE 9 km/h 9 km/h 62 % 0 mm 156.0 W/m2 CLR
11:39 -10.3 °C -14.3 °C 34361.1 hPa South 10.3 km/h 10.3 km/h 62 % 0 mm 134.0 W/m2 CLR
11:44 -10.3 °C -14.1 °C 34347.6 hPa South 15 km/h 15 km/h 64 % 0 mm 142.0 W/m2 CLR
11:49 -10.3 °C -14.1 °C 34347.6 hPa SSW 9 km/h 9 km/h 64 % 0 mm 142.0 W/m2 CLR
11:54 -10.3 °C -14.2 °C 34347.6 hPa SSW 11.9 km/h 11.9 km/h 63 % 0 mm 155.0 W/m2 CLR
11:59 -10.3 °C -14.1 °C 34361.1 hPa SW 9 km/h 9 km/h 63 % 0 mm 211.0 W/m2 CLR
12:04 -10.3 °C -13.7 °C 34347.6 hPa Calm     66 % 0 mm 264.0 W/m2 CLR
12:09 -10.2 °C -13.6 °C 34347.6 hPa Calm     67 % 0 mm 181.0 W/m2 CLR
12:14 -10.2 °C -13.7 °C 34347.6 hPa NW 11.9 km/h 11.9 km/h 66 % 0 mm 153.0 W/m2 CLR
12:15 -10.2 °C -13.9 °C 34347.6 hPa NW 11.9 km/h 11.9 km/h 64 % 0 mm 153.0 W/m2 CLR
12:20 -10.1 °C -13.8 °C 34347.6 hPa WNW 15.6 km/h 15.6 km/h 64 % 0 mm 193.0 W/m2 CLR
12:25 -9.8 °C -13.7 °C 34347.6 hPa WNW 15 km/h 15 km/h 63 % 0 mm 513.0 W/m2 CLR
12:30 -9.4 °C -13.8 °C 34337.4 hPa WNW 29.8 km/h 29.8 km/h 59 % 0 mm 540.0 W/m2 CLR
12:35 -9.1 °C -13.6 °C 34337.4 hPa WNW 17.9 km/h 17.9 km/h 59 % 0 mm 531.0 W/m2 CLR
12:40 -8.9 °C -14.1 °C 34337.4 hPa West 26.9 km/h 26.9 km/h 54 % 0 mm 485.0 W/m2 CLR
12:45 -8.8 °C -14.1 °C 34347.6 hPa WNW 41.7 km/h 41.7 km/h 53 % 0 mm 541.0 W/m2 CLR
12:50 -8.7 °C -13.4 °C 34337.4 hPa WNW 35.7 km/h 35.7 km/h 57 % 0 mm 554.0 W/m2 CLR
12:55 -8.6 °C -13.6 °C 34337.4 hPa WNW 41.7 km/h 41.7 km/h 55 % 0 mm 693.0 W/m2 CLR
13:00 -8.5 °C -14 °C 34337.4 hPa West 50.7 km/h 50.7 km/h 52 % 0 mm 714.0 W/m2 CLR
13:05 -8.4 °C -14.1 °C 34337.4 hPa West 41.7 km/h 41.7 km/h 51 % 0 mm 359.0 W/m2 CLR
13:10 -8.5 °C -13.6 °C 34337.4 hPa WNW 23.8 km/h 23.8 km/h 55 % 0 mm 285.0 W/m2 CLR
13:15 -8.7 °C -14 °C 34337.4 hPa NW 20.9 km/h 20.9 km/h 53 % 0 mm 137.0 W/m2 CLR
13:20 -8.8 °C -13.7 °C 34337.4 hPa NW 17.9 km/h 17.9 km/h 56 % 0 mm 139.0 W/m2 CLR
13:25 -8.8 °C -13.4 °C 34327.3 hPa Calm     58 % 0 mm 149.0 W/m2 CLR
13:30 -8.8 °C -13.7 °C 34327.3 hPa WNW 9 km/h   56 % 0 mm 251.0 W/m2 CLR
13:35 -8.8 °C -14 °C 34327.3 hPa West 15 km/h 15 km/h 54 % 0 mm 250.0 W/m2 CLR
13:40 -8.8 °C -13.7 °C 34327.3 hPa West 18.2 km/h 18.2 km/h 56 % 0 mm 169.0 W/m2 CLR
13:45 -8.8 °C -13.7 °C 34327.3 hPa WNW 23.8 km/h 23.8 km/h 56 % 0 mm 234.0 W/m2 CLR
13:50 -8.6 °C -13.4 °C 34327.3 hPa NW 23.8 km/h 23.8 km/h 57 % 0 mm 345.0 W/m2 CLR
13:55 -8.3 °C -13.7 °C 34327.3 hPa WNW 36.2 km/h 36.2 km/h 53 % 0 mm 262.0 W/m2 CLR
14:00 -8.1 °C -14.1 °C 34327.3 hPa West 62.6 km/h 62.6 km/h 49 % 0 mm 682.0 W/m2 CLR
14:05 -8.1 °C -13.9 °C 34313.7 hPa WNW 74.5 km/h 74.5 km/h 50 % 0 mm 243.0 W/m2 CLR
14:10 -8.4 °C -13.4 °C 34327.3 hPa NW 68.6 km/h 68.6 km/h 55 % 0 mm 512.0 W/m2 CLR
14:15 -9 °C -13.6 °C 34327.3 hPa NNW 41.4 km/h 41.4 km/h 58 % 0 mm 227.0 W/m2 CLR
14:20 -9.4 °C -13.7 °C 34337.4 hPa North 47.6 km/h 47.6 km/h 60 % 0 mm 149.0 W/m2 CLR
14:25 -9.7 °C -13.4 °C 34337.4 hPa North 32.8 km/h 32.8 km/h 64 % 0 mm 113.0 W/m2 CLR
14:30 -9.9 °C -13.7 °C 34337.4 hPa North 41.7 km/h 41.7 km/h 64 % 0 mm 149.0 W/m2 CLR
14:35 -10.2 °C -13.6 °C 34347.6 hPa North 47.6 km/h 47.6 km/h 66 % 0 mm 162.0 W/m2 CLR
14:40 -10.3 °C -13.5 °C 34347.6 hPa North 38.8 km/h 38.8 km/h 68 % 0 mm 239.0 W/m2 CLR
14:45 -10.4 °C -13.3 °C 34347.6 hPa North 29.8 km/h 29.8 km/h 71 % 0 mm 160.0 W/m2 CLR
14:50 -10.6 °C -13.4 °C 34347.6 hPa North 32.8 km/h 32.8 km/h 71 % 0 mm 156.0 W/m2 CLR
14:55 -10.6 °C -13.4 °C 34347.6 hPa North 35.7 km/h 35.7 km/h 72 % 0 mm 216.0 W/m2 CLR
15:00 -10.7 °C -13.3 °C 34347.6 hPa North 26.9 km/h 26.9 km/h 73 % 0 mm 153.0 W/m2 CLR
15:05 -10.7 °C -13.4 °C 34347.6 hPa North 23.8 km/h 23.8 km/h 72 % 0 mm 169.0 W/m2 CLR
15:10 -10.7 °C -13.4 °C 34347.6 hPa North 29.8 km/h 29.8 km/h 72 % 0 mm 167.0 W/m2 CLR
15:15 -10.6 °C -13.4 °C 34347.6 hPa North 29.8 km/h 29.8 km/h 71 % 0 mm 561.0 W/m2 CLR
15:20 -10.4 °C -13.2 °C 34347.6 hPa North 29.8 km/h 29.8 km/h 72 % 0 mm 197.0 W/m2 CLR
15:25 -10.3 °C -13.2 °C 34347.6 hPa North 6 km/h 6 km/h 71 % 0 mm 510.0 W/m2 CLR
15:30 -10.2 °C -13.3 °C 34347.6 hPa North 23.8 km/h 23.8 km/h 69 % 0 mm 436.0 W/m2 CLR
15:35 -10.2 °C -13.2 °C 34361.1 hPa NNE 9 km/h 9 km/h 70 % 0 mm 464.0 W/m2 CLR
15:40 -10.1 °C -13.1 °C 34361.1 hPa North 12.9 km/h 12.9 km/h 70 % 0 mm 490.0 W/m2 CLR
15:45 -9.9 °C -12.8 °C 34361.1 hPa Calm     71 % 0 mm 390.0 W/m2 CLR
15:50 -9.8 °C -13.2 °C 34361.1 hPa NNW 17.9 km/h 17.9 km/h 67 % 0 mm 381.0 W/m2 CLR
15:55 -9.9 °C -13.2 °C 34361.1 hPa North 9 km/h 9 km/h 68 % 0 mm 174.0 W/m2 CLR
16:00 -10.1 °C -13.1 °C 34361.1 hPa North 6 km/h 6 km/h 70 % 0 mm 123.0 W/m2 CLR
16:05 -10.1 °C -13.2 °C 34361.1 hPa Calm     69 % 0 mm 109.0 W/m2 CLR
16:10 -10.2 °C -13.3 °C 34361.1 hPa Calm     69 % 0 mm 109.0 W/m2 CLR
16:15 -10.2 °C -13.3 °C 34361.1 hPa Calm     69 % 0 mm 116.0 W/m2 CLR
16:20 -10.2 °C -13.3 °C 34361.1 hPa Calm     69 % 0 mm 102.0 W/m2 CLR
16:25 -10.2 °C -13.3 °C 34361.1 hPa Calm     69 % 0 mm 91.0 W/m2 CLR
16:30 -10.3 °C -13.4 °C 34347.6 hPa Calm     69 % 0 mm 86.0 W/m2 CLR
16:35 -10.2 °C -13.2 °C 34361.1 hPa Calm     70 % 0 mm 83.0 W/m2 CLR
16:40 -10.3 °C -13 °C 34371.3 hPa Calm     72 % 0 mm 76.0 W/m2 FEW
16:45 -10.3 °C -13 °C 34371.3 hPa Calm     72 % 0 mm 62.0 W/m2 FEW
16:50 -10.3 °C -13.1 °C 34371.3 hPa Calm     72 % 0 mm 56.0 W/m2 FEW
16:55 -10.4 °C -13.2 °C 34371.3 hPa Calm     71 % 0 mm 53.0 W/m2 SCT
17:00 -10.4 °C -13.4 °C 34371.3 hPa Calm     70 % 0 mm 62.0 W/m2 SCT
17:05 -10.5 °C -13.3 °C 34384.8 hPa Calm     72 % 0 mm 58.0 W/m2 SCT
17:10 -10.6 °C -13.4 °C 34371.3 hPa Calm     72 % 0 mm 37.0 W/m2 SCT
17:15 -10.7 °C -13.4 °C 34371.3 hPa Calm     72 % 0 mm 40.0 W/m2 BKN
17:20 -10.7 °C -13.4 °C 34371.3 hPa Calm     73 % 0 mm 40.0 W/m2 BKN
17:26 -10.7 °C -13.2 °C 34371.3 hPa Calm     74 % 0 mm 35.0 W/m2 BKN
17:31 -10.8 °C -13.3 °C 34371.3 hPa Calm     74 % 0 mm 28.0 W/m2 BKN
17:36 -10.8 °C -13.2 °C 34371.3 hPa Calm     75 % 0 mm 25.0 W/m2 BKN
17:41 -10.9 °C -13.4 °C 34371.3 hPa Calm     74 % 0 mm 18.0 W/m2 BKN
17:43 -10.9 °C -13.4 °C 34371.3 hPa Calm     74 % 0 mm 14.0 W/m2 BKN
17:48 -10.9 °C -13.4 °C 34371.3 hPa Calm     74 % 0 mm 14.0 W/m2 BKN
17:53 -10.9 °C -13.4 °C 34384.8 hPa Calm     74 % 0 mm 11.0 W/m2 BKN
17:58 -11 °C -13.5 °C 34384.8 hPa Calm     74 % 0 mm 9.0 W/m2 BKN
18:03 -11.1 °C -13.3 °C 34384.8 hPa Calm     76 % 0 mm 5.0 W/m2 OVC
18:08 -11.1 °C -13.4 °C 34384.8 hPa Calm     76 % 0 mm 0.0 W/m2 OVC
18:13 -11.2 °C -13.3 °C 34384.8 hPa Calm     77 % 0 mm 0.0 W/m2 OVC
18:18 -11.2 °C -13.4 °C 34384.8 hPa Calm     77 % 0 mm 0.0 W/m2 OVC
18:23 -11.3 °C -13.4 °C 34384.8 hPa Calm     77 % 0 mm 0.0 W/m2 OVC
18:28 -11.3 °C -13.4 °C 34384.8 hPa Calm     78 % 0 mm 0.0 W/m2 OVC
18:33 -11.3 °C -13.4 °C 34395 hPa Calm     78 % 0 mm 0.0 W/m2 CLR
18:38 -11.3 °C -13.4 °C 34395 hPa Calm     78 % 0 mm 0.0 W/m2 CLR
18:43 -11.4 °C -13.4 °C 34395 hPa Calm     78 % 0 mm 0.0 W/m2 CLR
18:48 -11.4 °C -13.4 °C 34395 hPa Calm     78 % 0 mm 0.0 W/m2 CLR
18:53 -11.4 °C -13.4 °C 34405.1 hPa Calm     79 % 0 mm 0.0 W/m2 CLR
18:58 -11.6 °C -13.4 °C 34405.1 hPa Calm     80 % 0 mm 0.0 W/m2 CLR
19:03 -11.6 °C -13.4 °C 34405.1 hPa Calm     81 % 0 mm 0.0 W/m2 CLR
19:08 -11.7 °C -13.4 °C 34405.1 hPa Calm     82 % 0 mm 0.0 W/m2 CLR
19:13 -11.8 °C -13.4 °C 34405.1 hPa Calm     82 % 0 mm 0.0 W/m2 CLR
19:18 -11.8 °C -13.3 °C 34405.1 hPa Calm     83 % 0 mm 0.0 W/m2 CLR
19:23 -11.8 °C -13.4 °C 34418.7 hPa Calm     83 % 0 mm 0.0 W/m2 CLR
19:28 -11.8 °C -13.4 °C 34418.7 hPa Calm     83 % 0 mm 0.0 W/m2 CLR
19:33 -11.8 °C -13.3 °C 34405.1 hPa Calm     83 % 0 mm 0.0 W/m2 CLR
19:38 -11.9 °C -13.4 °C 34405.1 hPa Calm     84 % 0 mm 0.0 W/m2 CLR
19:43 -12.1 °C -13.4 °C 34405.1 hPa Calm     85 % 0 mm 0.0 W/m2 CLR
19:48 -12.1 °C -13.3 °C 34405.1 hPa Calm     86 % 0 mm 0.0 W/m2 CLR
19:53 -12.2 °C -13.4 °C 34418.7 hPa WSW 11.9 km/h 11.9 km/h 86 % 0 mm 0.0 W/m2 CLR
19:58 -12.2 °C -13.4 °C 34418.7 hPa Calm     86 % 0 mm 0.0 W/m2 CLR
20:03 -12.1 °C -13.3 °C 34418.7 hPa Calm     86 % 0 mm 0.0 W/m2 CLR
20:08 -12.2 °C -13.4 °C 34418.7 hPa Calm     86 % 0 mm 0.0 W/m2 CLR
20:13 -12.2 °C -13.4 °C 34418.7 hPa Calm     86 % 0 mm 0.0 W/m2 CLR
20:18 -12.2 °C -13.6 °C 34418.7 hPa Calm     85 % 0 mm 0.0 W/m2 CLR
20:23 -12.2 °C -13.6 °C 34418.7 hPa Calm     85 % 0 mm 0.0 W/m2 CLR
20:28 -12.1 °C -13.7 °C 34418.7 hPa Calm     82 % 0 mm 0.0 W/m2 CLR
20:33 -11.9 °C -13.5 °C 34405.1 hPa Calm     83 % 0 mm 0.0 W/m2 CLR
20:38 -12.1 °C -13.6 °C 34405.1 hPa Calm     83 % 0 mm 0.0 W/m2 CLR
20:43 -12.1 °C -13.7 °C 34405.1 hPa Calm     82 % 0 mm 0.0 W/m2 CLR
20:48 -12.1 °C -13.8 °C 34405.1 hPa Calm     82 % 0 mm 0.0 W/m2 CLR
20:53 -12.2 °C -13.8 °C 34418.7 hPa Calm     82 % 0 mm 0.0 W/m2 CLR
20:58 -12.2 °C -13.9 °C 34418.7 hPa Calm     81 % 0 mm 0.0 W/m2 CLR
21:03 -12.1 °C -13.8 °C 34405.1 hPa Calm     80 % 0 mm 0.0 W/m2 CLR
21:08 -11.9 °C -13.9 °C 34405.1 hPa WSW 3.1 km/h   78 % 0 mm 0.0 W/m2 CLR
21:13 -11.7 °C -14 °C 34405.1 hPa West 9 km/h 9 km/h 76 % 0 mm 0.0 W/m2 CLR
21:18 -11.6 °C -14 °C 34405.1 hPa West 9 km/h 9 km/h 75 % 0 mm 0.0 W/m2 CLR
21:23 -11.5 °C -13.8 °C 34405.1 hPa Calm     76 % 0 mm 0.0 W/m2 CLR
21:28 -11.6 °C -14 °C 34405.1 hPa Calm     75 % 0 mm 0.0 W/m2 CLR
21:33 -11.8 °C -14.1 °C 34405.1 hPa West 6 km/h   76 % 0 mm 0.0 W/m2 CLR
21:38 -11.9 °C -14.1 °C 34405.1 hPa Calm     77 % 0 mm 0.0 W/m2 CLR
21:43 -12 °C -14.1 °C 34405.1 hPa Calm     77 % 0 mm 0.0 W/m2 CLR
21:48 -12.1 °C -14.1 °C 34405.1 hPa Calm     78 % 0 mm 0.0 W/m2 CLR
21:53 -12.2 °C -14.1 °C 34395 hPa Calm     79 % 0 mm 0.0 W/m2 CLR
21:58 -12.3 °C -14.2 °C 34395 hPa Calm     79 % 0 mm 0.0 W/m2 CLR
22:04 -12.3 °C -14.2 °C 34395 hPa Calm     79 % 0 mm 0.0 W/m2 CLR
22:08 -12.3 °C -14.2 °C 34395 hPa Calm     80 % 0 mm 0.0 W/m2 CLR
22:14 -12.4 °C -14.3 °C 34384.8 hPa Calm     80 % 0 mm 0.0 W/m2 CLR
22:19 -12.4 °C -14.2 °C 34395 hPa Calm     81 % 0 mm 0.0 W/m2 CLR
22:24 -12.6 °C -14.3 °C 34395 hPa Calm     81 % 0 mm 0.0 W/m2 CLR
22:29 -12.6 °C -14.3 °C 34395 hPa Calm     81 % 0 mm 0.0 W/m2 CLR
22:34 -12.7 °C -14.3 °C 34384.8 hPa Calm     82 % 0 mm 0.0 W/m2 CLR
22:39 -12.7 °C -14.3 °C 34384.8 hPa Calm     82 % 0 mm 0.0 W/m2 CLR
22:44 -12.8 °C -14.3 °C 34384.8 hPa Calm     83 % 0 mm 0.0 W/m2 CLR
22:49 -12.8 °C -14.3 °C 34384.8 hPa Calm     83 % 0 mm 0.0 W/m2 CLR
22:54 -12.7 °C -14.4 °C 34371.3 hPa SW 3.1 km/h 3.1 km/h 81 % 0 mm 0.0 W/m2 CLR
22:59 -12.6 °C -14.4 °C 34384.8 hPa WSW 6 km/h   80 % 0 mm 0.0 W/m2 CLR
23:04 -12.4 °C -14.4 °C 34371.3 hPa Calm     79 % 0 mm 0.0 W/m2 CLR
23:09 -12.5 °C -14.4 °C 34371.3 hPa Calm     79 % 0 mm 0.0 W/m2 CLR
23:14 -12.7 °C -14.5 °C 34371.3 hPa Calm     80 % 0 mm 0.0 W/m2 CLR
23:19 -12.8 °C -14.6 °C 34371.3 hPa Calm     81 % 0 mm 0.0 W/m2 CLR
23:24 -13 °C -14.6 °C 34361.1 hPa Calm     82 % 0 mm 0.0 W/m2 CLR
23:29 -13.1 °C -14.6 °C 34361.1 hPa West 7.7 km/h 7.7 km/h 83 % 0 mm 0.0 W/m2 CLR
23:34 -13 °C -14.5 °C 34347.6 hPa WSW 11.9 km/h 11.9 km/h 83 % 0 mm 0.0 W/m2 CLR
23:39 -12.8 °C -14.4 °C 34347.6 hPa Calm     82 % 0 mm 0.0 W/m2 CLR
23:44 -12.9 °C -14.6 °C 34347.6 hPa Calm     82 % 0 mm 0.0 W/m2 CLR
23:49 -12.9 °C -14.6 °C 34361.1 hPa Calm     82 % 0 mm 0.0 W/m2 CLR
23:54 -13 °C -14.5 °C 34347.6 hPa Calm     83 % 0 mm 0.0 W/m2 CLR
23:59 -13.1 °C -14.6 °C 34347.6 hPa Calm     83 % 0 mm 0.0 W/m2 CLR
Lo Temps de Massalio
Compliments of Weather Underground - 1.25 mb